createdAt,value
2018-04-23T00:02:17.335Z,8.63
2018-04-23T00:04:45.778Z,8.37
2018-04-23T00:07:13.672Z,8.17
2018-04-23T00:09:42.063Z,8.73
2018-04-23T00:12:09.825Z,8.27
2018-04-23T00:14:37.590Z,8.27
2018-04-23T00:17:05.961Z,7.73
2018-04-23T00:19:34.289Z,8.20
2018-04-23T00:22:02.428Z,8.00
2018-04-23T00:24:30.084Z,8.93
2018-04-23T00:26:58.689Z,8.40
2018-04-23T00:29:26.295Z,8.47
2018-04-23T00:31:54.540Z,7.93
2018-04-23T00:34:22.247Z,8.53
2018-04-23T00:36:49.915Z,9.10
2018-04-23T00:39:17.631Z,8.13
2018-04-23T00:41:46.111Z,8.07
2018-04-23T00:44:13.833Z,9.27
2018-04-23T00:46:42.294Z,8.93
2018-04-23T00:49:10.645Z,8.40
2018-04-23T00:51:40.249Z,8.53
2018-04-23T00:54:08.773Z,8.00
2018-04-23T00:56:36.411Z,8.30
2018-04-23T00:59:04.857Z,8.60
2018-04-23T01:01:33.978Z,9.37
2018-04-23T01:04:01.704Z,8.73
2018-04-23T01:06:29.403Z,9.00
2018-04-23T01:08:57.198Z,8.50
2018-04-23T01:11:25.372Z,8.43
2018-04-23T01:13:53.016Z,8.67
2018-04-23T01:16:20.682Z,8.80
2018-04-23T01:18:49.121Z,9.20
2018-04-23T01:21:16.830Z,8.63
2018-04-23T01:23:44.642Z,8.60
2018-04-23T01:26:12.373Z,9.87
2018-04-23T01:28:40.856Z,9.07
2018-04-23T01:31:08.494Z,9.67
2018-04-23T01:33:36.155Z,9.23
2018-04-23T01:36:03.783Z,9.60
2018-04-23T01:38:32.436Z,9.70
2018-04-23T01:41:00.121Z,9.73
2018-04-23T01:43:27.740Z,8.83
2018-04-23T01:45:56.163Z,8.93
2018-04-23T01:48:23.800Z,9.00
2018-04-23T01:50:52.689Z,8.70
2018-04-23T01:53:20.445Z,9.10
2018-04-23T01:55:49.504Z,8.70
2018-04-23T01:58:17.145Z,8.93
2018-04-23T02:00:45.226Z,8.37
2018-04-23T02:03:14.622Z,9.07
2018-04-23T02:05:42.998Z,8.90
2018-04-23T02:08:11.383Z,8.67
2018-04-23T02:10:40.017Z,7.77
2018-04-23T03:34:33.408Z,8.57
2018-04-23T03:37:01.051Z,9.60
2018-04-23T03:39:28.717Z,8.33
2018-04-23T03:41:57.197Z,9.27
2018-04-23T03:44:25.532Z,9.10
2018-04-23T03:46:53.283Z,9.47
2018-04-23T03:49:22.451Z,9.57
2018-04-23T03:51:50.153Z,9.07
2018-04-23T03:54:17.821Z,8.40
2018-04-23T03:56:45.451Z,8.40
2018-04-23T03:59:13.838Z,9.07
2018-04-23T04:01:42.262Z,8.57
2018-04-23T04:04:09.870Z,9.23
2018-04-23T04:06:38.753Z,8.60
2018-04-23T04:09:06.503Z,8.73
2018-04-23T04:11:35.673Z,8.93
2018-04-23T04:14:16.001Z,8.80
2018-04-23T04:16:57.850Z,8.60
2018-04-23T04:19:26.381Z,8.60
2018-04-23T04:21:54.153Z,9.10
2018-04-23T04:24:23.122Z,11.63
2018-04-23T04:26:50.946Z,9.13
2018-04-23T04:29:18.620Z,8.93
2018-04-23T04:31:47.891Z,8.73
2018-04-23T04:34:17.220Z,8.20
2018-04-23T04:36:50.090Z,7.70
2018-04-23T04:39:23.960Z,7.53
2018-04-23T04:41:52.054Z,7.50
2018-04-23T04:44:19.713Z,7.80
2018-04-23T04:46:47.392Z,7.73
2018-04-23T04:49:16.394Z,8.00
2018-04-23T04:51:44.833Z,8.03
2018-04-23T04:54:12.726Z,8.13
2018-04-23T04:56:40.421Z,8.87
2018-04-23T04:59:08.152Z,8.57
2018-04-23T05:01:35.927Z,7.97
2018-04-23T05:04:03.640Z,8.40
2018-04-23T05:06:32.474Z,8.40
2018-04-23T05:09:00.159Z,7.80
2018-04-23T05:11:28.571Z,7.97
2018-04-23T05:14:02.911Z,8.10
2018-04-23T05:16:30.585Z,8.43
2018-04-23T05:18:58.327Z,8.70
2018-04-23T05:22:06.561Z,9.30
2018-04-23T05:24:36.665Z,9.80
2018-04-23T05:27:04.377Z,9.30
2018-04-23T05:29:33.199Z,9.77
2018-04-23T05:32:02.693Z,9.90
2018-04-23T05:34:30.867Z,9.63
2018-04-23T05:36:59.239Z,10.20
2018-04-23T05:39:26.916Z,10.53
2018-04-23T05:41:55.109Z,9.87
2018-04-23T05:44:24.088Z,9.70
2018-04-23T05:46:52.547Z,9.73
2018-04-23T05:49:20.827Z,10.27
2018-04-23T05:51:49.065Z,10.20
2018-04-23T05:54:16.798Z,9.27
2018-04-23T05:56:45.183Z,10.03
2018-04-23T05:59:14.269Z,10.00
2018-04-23T06:01:43.131Z,9.73
2018-04-23T06:04:12.963Z,9.33
2018-04-23T06:06:41.371Z,8.10
2018-04-23T06:09:09.186Z,8.00
2018-04-23T06:11:36.823Z,8.60
2018-04-23T06:14:05.306Z,9.23
2018-04-23T06:16:33.009Z,8.83
2018-04-23T06:19:01.609Z,8.63
2018-04-23T06:21:30.101Z,8.07
2018-04-23T06:24:00.005Z,8.33
2018-04-23T06:26:27.741Z,8.10
2018-04-23T06:28:55.397Z,8.73
2018-04-23T06:31:23.785Z,7.70
2018-04-23T06:33:52.161Z,7.63
2018-04-23T06:36:19.748Z,7.33
2018-04-23T06:38:48.135Z,7.77
2018-04-23T06:41:16.683Z,7.37
2018-04-23T06:43:44.343Z,6.70
2018-04-23T06:46:12.057Z,7.03
2018-04-23T06:48:39.843Z,7.03
2018-04-23T06:51:07.462Z,7.23
2018-04-23T06:53:35.693Z,7.10
2018-04-23T06:56:03.362Z,6.70
2018-04-23T06:58:31.086Z,7.37
2018-04-23T07:00:58.710Z,7.63
2018-04-23T07:03:29.089Z,8.00
2018-04-23T07:05:56.777Z,7.60
2018-04-23T07:08:24.768Z,7.53
2018-04-23T07:10:53.201Z,7.73
2018-04-23T07:13:20.827Z,7.47
2018-04-23T07:15:48.447Z,7.87
2018-04-23T07:18:17.067Z,7.20
2018-04-23T07:20:45.536Z,7.00
2018-04-23T07:23:13.954Z,7.50
2018-04-23T07:25:41.549Z,7.40
2018-04-23T07:28:09.223Z,7.00
2018-04-23T07:30:36.994Z,6.23
2018-04-23T07:33:04.695Z,6.83
2018-04-23T07:35:33.347Z,6.77
2018-04-23T07:38:01.037Z,6.00
2018-04-23T07:40:29.673Z,5.73
2018-04-23T07:42:57.316Z,6.23
2018-04-23T07:45:24.993Z,6.10
2018-04-23T07:47:53.098Z,6.80
2018-04-23T07:50:20.727Z,5.93
2018-04-23T07:52:49.839Z,6.13
2018-04-23T07:55:19.149Z,6.33
2018-04-23T07:57:47.621Z,5.70
2018-04-23T08:00:15.318Z,6.07
2018-04-23T08:02:43.747Z,5.80
2018-04-23T08:05:11.464Z,6.27
2018-04-23T08:07:39.183Z,6.43
2018-04-23T08:10:06.924Z,5.87
2018-04-23T08:12:34.573Z,5.57
2018-04-23T08:15:03.360Z,6.33
2018-04-23T08:17:32.543Z,6.50
2018-04-23T08:20:00.666Z,6.30
2018-04-23T08:22:28.274Z,6.03
2018-04-23T08:24:56.718Z,6.13
2018-04-23T08:27:24.347Z,5.43
2018-04-23T08:29:52.804Z,5.77
2018-04-23T08:32:20.561Z,5.97
2018-04-23T08:34:48.200Z,5.90
2018-04-23T08:37:15.833Z,5.70
2018-04-23T08:39:43.465Z,5.93
2018-04-23T08:42:11.105Z,5.50
2018-04-23T08:44:39.731Z,5.83
2018-04-23T08:47:08.123Z,6.17
2018-04-23T08:49:36.786Z,5.90
2018-04-23T08:52:05.176Z,6.13
2018-04-23T08:54:34.122Z,6.07
2018-04-23T08:57:02.711Z,7.23
2018-04-23T08:59:30.305Z,6.30
2018-04-23T09:01:58.098Z,6.50
2018-04-23T09:04:25.695Z,6.77
2018-04-23T09:06:53.386Z,6.40
2018-04-23T09:09:21.742Z,6.17
2018-04-23T09:11:50.250Z,6.60
2018-04-23T09:14:17.850Z,7.10
2018-04-23T09:16:46.457Z,7.33
2018-04-23T09:19:14.795Z,7.33
2018-04-23T09:21:43.098Z,7.40
2018-04-23T09:24:10.738Z,7.27
2018-04-23T09:26:38.549Z,7.80
2018-04-23T09:29:07.913Z,7.93
2018-04-23T09:31:35.597Z,7.40
2018-04-23T09:34:03.220Z,7.87
2018-04-23T09:36:31.727Z,7.10
2018-04-23T09:38:59.486Z,7.43
2018-04-23T09:41:28.027Z,8.07
2018-04-23T09:43:55.664Z,8.40
2018-04-23T09:46:23.269Z,7.90
2018-04-23T09:48:50.861Z,8.07
2018-04-23T09:51:18.668Z,7.93
2018-04-23T09:53:48.487Z,7.17
2018-04-23T09:56:16.148Z,7.60
2018-04-23T09:58:43.868Z,8.43
2018-04-23T10:01:18.059Z,7.57
2018-04-23T10:03:56.210Z,8.77
2018-04-23T10:06:23.924Z,8.37
2018-04-23T10:08:51.636Z,8.50
2018-04-23T10:11:20.331Z,8.63
2018-04-23T10:13:49.554Z,8.57
2018-04-23T10:16:18.034Z,8.20
2018-04-23T10:18:45.779Z,9.20
2018-04-23T10:21:13.898Z,9.70
2018-04-23T10:23:41.536Z,9.57
2018-04-23T10:26:11.452Z,9.40
2018-04-23T10:28:42.200Z,9.47
2018-04-23T10:31:11.699Z,9.33
2018-04-23T10:33:40.181Z,9.60
2018-04-23T10:36:08.694Z,10.33
2018-04-23T10:38:36.324Z,9.80
2018-04-23T10:41:04.893Z,11.23
2018-04-23T10:43:33.357Z,9.83
2018-04-23T10:46:01.521Z,9.73
2018-04-23T10:48:31.196Z,10.60
2018-04-23T10:50:58.954Z,10.83
2018-04-23T10:53:26.601Z,9.87
2018-04-23T10:55:55.294Z,10.03
2018-04-23T10:58:23.957Z,10.80
2018-04-23T11:00:51.654Z,9.97
2018-04-23T11:03:20.069Z,9.73
2018-04-23T11:05:48.462Z,11.03
2018-04-23T11:08:16.105Z,10.50
2018-04-23T11:10:44.457Z,9.60
2018-04-23T11:13:12.430Z,9.87
2018-04-23T11:15:40.199Z,9.83
2018-04-23T11:18:07.908Z,9.13
2018-04-23T11:20:35.570Z,9.37
2018-04-23T11:23:03.869Z,10.20
2018-04-23T11:25:33.250Z,9.87
2018-04-23T11:28:00.881Z,9.80
2018-04-23T11:30:30.077Z,9.67
2018-04-23T11:33:02.674Z,10.20
2018-04-23T11:35:30.299Z,10.17
2018-04-23T11:37:59.758Z,10.60
2018-04-23T11:40:27.458Z,10.50
2018-04-23T11:42:55.133Z,11.20
2018-04-23T11:45:22.783Z,10.07
2018-04-23T11:47:51.129Z,8.87
2018-04-23T11:50:18.796Z,9.90
2018-04-23T11:52:46.431Z,9.40
2018-04-23T11:55:14.922Z,9.90
2018-04-23T11:57:43.167Z,9.67
2018-04-23T12:00:10.945Z,9.97
2018-04-23T12:02:40.947Z,9.17
2018-04-23T12:05:08.685Z,9.33
2018-04-23T12:07:36.407Z,9.33
2018-04-23T12:10:04.505Z,9.07
2018-04-23T12:12:32.261Z,9.43
2018-04-23T12:15:00.091Z,9.70
2018-04-23T12:17:28.543Z,8.20
2018-04-23T12:19:56.911Z,8.73
2018-04-23T12:22:24.498Z,7.83
2018-04-23T12:24:52.130Z,8.57
2018-04-23T12:27:19.745Z,8.90
2018-04-23T12:29:47.693Z,9.07
2018-04-23T12:32:18.797Z,9.70
2018-04-23T12:34:46.463Z,8.73
2018-04-23T12:37:14.224Z,9.43
2018-04-23T12:39:42.177Z,10.37
2018-04-23T12:42:09.842Z,10.83
2018-04-23T12:44:38.156Z,10.50
2018-04-23T12:47:05.864Z,10.20
2018-04-23T12:49:33.576Z,10.93
2018-04-23T12:52:02.081Z,10.17
2018-04-23T12:54:29.808Z,9.53
2018-04-23T12:56:58.208Z,10.90
2018-04-23T12:59:25.984Z,10.87
2018-04-23T13:01:53.700Z,10.87
2018-04-23T13:04:22.965Z,10.87
2018-04-23T13:06:51.128Z,7.63
2018-04-23T13:09:19.714Z,7.60
2018-04-23T13:11:47.350Z,7.30
2018-04-23T13:14:15.706Z,7.30
2018-04-23T13:16:43.424Z,7.67
2018-04-23T13:19:11.132Z,8.13
2018-04-23T13:21:39.031Z,7.93
2018-04-23T13:24:06.627Z,7.63
2018-04-23T13:26:34.590Z,8.33
2018-04-23T13:29:02.287Z,7.97
2018-04-23T13:31:29.927Z,6.97
2018-04-23T13:33:57.604Z,6.93
2018-04-23T13:36:25.266Z,7.83
2018-04-23T13:38:53.860Z,7.03
2018-04-23T13:41:22.040Z,8.13
2018-04-23T13:43:49.729Z,7.40
2018-04-23T13:46:17.436Z,7.43
2018-04-23T13:48:45.223Z,7.30
2018-04-23T13:51:13.725Z,7.37
2018-04-23T13:53:43.844Z,7.50
2018-04-23T13:56:11.569Z,6.70
2018-04-23T13:58:40.926Z,6.83
2018-04-23T14:01:08.590Z,7.10
2018-04-23T14:03:36.231Z,7.17
2018-04-23T14:06:03.862Z,6.10
2018-04-23T14:08:31.464Z,6.73
2018-04-23T14:10:59.236Z,6.90
2018-04-23T14:13:27.686Z,7.27
2018-04-23T14:15:57.112Z,6.50
2018-04-23T14:18:25.644Z,6.50
2018-04-23T14:20:53.267Z,6.57
2018-04-23T14:23:20.954Z,6.90
2018-04-23T14:25:49.392Z,7.03
2018-04-23T14:28:17.045Z,6.40
2018-04-23T14:30:44.662Z,6.83
2018-04-23T14:33:12.858Z,6.80
2018-04-23T14:35:41.646Z,6.90
2018-04-23T14:38:10.109Z,7.20
2018-04-23T14:40:38.647Z,7.17
2018-04-23T14:43:06.370Z,7.43
2018-04-23T14:45:34.378Z,6.73
2018-04-23T14:48:02.050Z,7.17
2018-04-23T14:50:30.115Z,7.00
2018-04-23T14:52:57.871Z,7.00
2018-04-23T14:55:26.029Z,6.90
2018-04-23T14:57:53.658Z,6.70
2018-04-23T15:00:22.409Z,7.10
2018-04-23T15:02:51.061Z,7.30
2018-04-23T15:05:19.588Z,6.90
2018-04-23T15:07:47.244Z,7.30
2018-04-23T15:10:15.756Z,6.53
2018-04-23T15:12:43.469Z,5.80
2018-04-23T15:15:12.057Z,6.63
2018-04-23T15:17:39.893Z,6.27
2018-04-23T15:20:08.366Z,5.27
2018-04-23T15:22:36.070Z,5.30
2018-04-23T15:25:03.774Z,4.90
2018-04-23T15:27:32.224Z,4.97
2018-04-23T15:30:00.982Z,4.80
2018-04-23T15:32:28.638Z,5.03
2018-04-23T15:34:56.242Z,4.50
2018-04-23T15:37:24.126Z,4.70
2018-04-23T15:39:52.663Z,4.60
2018-04-23T15:42:20.256Z,4.67
2018-04-23T15:44:47.905Z,3.97
2018-04-23T15:47:15.532Z,4.43
2018-04-23T15:49:44.238Z,4.13
2018-04-23T15:52:12.649Z,3.80
2018-04-23T15:54:40.243Z,4.50
2018-04-23T15:57:07.981Z,4.17
2018-04-23T15:59:36.335Z,4.23
2018-04-23T16:02:03.955Z,3.97
2018-04-23T16:04:31.590Z,3.77
2018-04-23T16:06:59.233Z,3.90
2018-04-23T16:09:26.797Z,3.77
2018-04-23T16:11:54.759Z,3.83
2018-04-23T16:14:22.358Z,3.63
2018-04-23T16:16:49.999Z,4.10
2018-04-23T16:19:17.617Z,3.30
2018-04-23T16:21:45.321Z,4.23
2018-04-23T16:24:13.082Z,3.83
2018-04-23T16:26:40.826Z,3.73
2018-04-23T16:29:09.976Z,3.90
2018-04-23T16:31:37.961Z,4.07
2018-04-23T16:34:06.830Z,3.63
2018-04-23T16:36:35.681Z,3.93
2018-04-23T16:39:03.981Z,3.63
2018-04-23T16:41:32.166Z,3.90
2018-04-23T16:44:00.925Z,3.80
2018-04-23T16:46:28.850Z,3.80
2018-04-23T16:48:56.793Z,3.83
2018-04-23T16:51:24.775Z,3.47
2018-04-23T16:53:52.496Z,4.03
2018-04-23T16:56:20.142Z,3.73
2018-04-23T16:58:48.672Z,3.50
2018-04-23T17:01:16.289Z,3.70
2018-04-23T17:03:44.089Z,3.53
2018-04-23T17:06:12.756Z,3.37
2018-04-23T17:08:40.442Z,3.53
2018-04-23T17:11:09.961Z,3.80
2018-04-23T17:13:38.079Z,3.77
2018-04-23T17:16:05.741Z,4.40
2018-04-23T17:18:35.218Z,3.60
2018-04-23T17:21:02.825Z,3.70
2018-04-23T17:23:31.215Z,3.60
2018-04-23T17:25:59.582Z,3.67
2018-04-23T17:28:28.031Z,4.07
2018-04-23T17:30:55.630Z,3.90
2018-04-23T17:33:25.202Z,3.57
2018-04-23T17:35:53.618Z,3.40
2018-04-23T17:38:21.427Z,3.60
2018-04-23T17:40:49.102Z,3.50
2018-04-23T17:43:16.817Z,3.83
2018-04-23T17:45:45.185Z,3.70
2018-04-23T17:48:12.845Z,3.67
2018-04-23T17:50:40.444Z,3.60
2018-04-23T17:53:08.417Z,4.27
2018-04-23T17:55:36.687Z,4.00
2018-04-23T17:58:04.376Z,3.87
2018-04-23T18:00:31.965Z,3.80
2018-04-23T18:02:59.573Z,3.63
2018-04-23T18:05:27.198Z,4.20
2018-04-23T18:07:55.658Z,3.77
2018-04-23T18:10:23.293Z,3.87
2018-04-23T18:12:51.056Z,3.77
2018-04-23T18:15:18.805Z,3.97
2018-04-23T18:17:49.117Z,4.13
2018-04-23T18:20:16.792Z,3.73
2018-04-23T18:22:44.418Z,4.07
2018-04-23T18:25:12.169Z,3.73
2018-04-23T18:27:40.380Z,4.50
2018-04-23T18:30:07.988Z,4.17
2018-04-23T18:32:39.746Z,4.07
2018-04-23T18:35:07.509Z,4.77
2018-04-23T18:37:36.007Z,4.30
2018-04-23T18:40:04.675Z,4.27
2018-04-23T18:42:32.306Z,4.20
2018-04-23T18:44:59.989Z,4.37
2018-04-23T18:47:27.651Z,4.27
2018-04-23T18:49:56.161Z,4.20
2018-04-23T18:52:23.776Z,4.60
2018-04-23T18:54:51.848Z,4.87
2018-04-23T18:57:20.217Z,4.90
2018-04-23T18:59:47.866Z,5.60
2018-04-23T19:02:15.494Z,5.33
2018-04-23T19:04:43.992Z,4.90
2018-04-23T19:07:12.334Z,5.57
2018-04-23T19:09:39.980Z,5.20
2018-04-23T19:12:07.637Z,5.40
2018-04-23T19:14:35.270Z,5.27
2018-04-23T19:17:03.829Z,5.50
2018-04-23T19:19:31.493Z,5.70
2018-04-23T19:21:59.184Z,6.30
2018-04-23T19:24:26.777Z,5.97
2018-04-23T19:26:54.882Z,6.27
2018-04-23T19:29:22.669Z,6.37
2018-04-23T19:31:51.307Z,8.47
2018-04-23T19:34:21.530Z,8.30
2018-04-23T19:36:49.270Z,9.70
2018-04-23T19:39:17.007Z,11.60
2018-04-23T19:41:46.156Z,10.83
2018-04-23T19:44:15.039Z,10.90
2018-04-23T19:46:43.481Z,11.73
2018-04-23T19:49:12.494Z,13.30
2018-04-23T19:51:41.096Z,13.03
2018-04-23T19:54:09.688Z,12.90
2018-04-23T19:56:38.030Z,13.40
2018-04-23T19:59:05.701Z,13.87
2018-04-23T20:01:34.186Z,14.37
2018-04-23T20:04:03.265Z,15.27
2018-04-23T20:06:30.840Z,17.73
2018-04-23T20:08:59.760Z,23.07
2018-04-23T20:11:28.833Z,18.07
2018-04-23T20:13:56.635Z,15.67
2018-04-23T20:16:26.251Z,15.03
2018-04-23T20:18:54.787Z,13.53
2018-04-23T20:21:24.199Z,12.10
2018-04-23T20:23:51.852Z,11.83
2018-04-23T20:26:20.740Z,11.87
2018-04-23T20:28:48.864Z,10.73
2018-04-23T20:31:16.922Z,10.23
2018-04-23T20:33:45.335Z,10.60
2018-04-23T20:36:12.934Z,9.47
2018-04-23T20:38:40.576Z,10.00
2018-04-23T20:41:09.712Z,9.27
2018-04-23T20:43:38.576Z,9.57
2018-04-23T20:46:06.712Z,9.20
2018-04-23T20:48:36.535Z,9.00
2018-04-23T20:51:04.182Z,9.23
2018-04-23T20:53:33.841Z,9.70
2018-04-23T20:56:02.469Z,9.43
2018-04-23T20:58:30.098Z,9.47
2018-04-23T21:01:01.969Z,9.33
2018-04-23T21:03:30.566Z,9.77
2018-04-23T21:05:59.765Z,9.77
2018-04-23T21:08:27.584Z,9.67
2018-04-23T21:10:55.951Z,9.93
2018-04-23T21:13:26.013Z,10.53
2018-04-23T21:15:55.214Z,9.90
2018-04-23T21:18:24.164Z,9.80
2018-04-23T21:20:53.021Z,9.70
2018-04-23T21:23:21.391Z,10.30
2018-04-23T21:25:49.286Z,10.70
2018-04-23T21:28:18.427Z,12.20
2018-04-23T21:30:49.213Z,11.03
2018-04-23T21:33:18.098Z,11.10
2018-04-23T21:35:47.110Z,11.50
2018-04-23T21:38:15.686Z,10.87
2018-04-23T21:40:43.952Z,11.60
2018-04-23T21:43:11.601Z,11.97
2018-04-23T21:45:39.824Z,11.93
2018-04-23T21:48:08.871Z,12.07
2018-04-23T21:50:37.148Z,11.73
2018-04-23T21:53:04.916Z,11.90
2018-04-23T21:55:33.156Z,11.57
2018-04-23T21:58:02.919Z,11.93
2018-04-23T22:00:32.665Z,12.97
2018-04-23T22:03:01.658Z,12.37
2018-04-23T22:05:30.941Z,11.43
2018-04-23T22:08:00.484Z,12.10
2018-04-23T22:10:30.660Z,11.17
2018-04-23T22:12:58.697Z,10.97
2018-04-23T22:15:27.255Z,10.37
2018-04-23T22:17:56.128Z,9.40
2018-04-23T22:20:24.719Z,9.30
2018-04-23T22:22:53.874Z,8.43
2018-04-23T22:25:22.252Z,8.33
2018-04-23T22:27:51.809Z,7.67
2018-04-23T22:30:20.724Z,7.20
2018-04-23T22:32:49.851Z,7.57
2018-04-23T22:35:19.302Z,6.97
2018-04-23T22:37:47.131Z,6.67
2018-04-23T22:40:16.260Z,6.37
2018-04-23T22:42:46.312Z,6.93
2018-04-23T22:45:14.734Z,6.67
2018-04-23T22:47:42.848Z,6.50
2018-04-23T22:50:11.840Z,6.87
2018-04-23T22:52:39.882Z,7.03
2018-04-23T22:55:08.307Z,6.73
2018-04-23T22:57:36.629Z,7.17
2018-04-23T23:00:06.055Z,6.43
2018-04-23T23:02:34.803Z,7.07
2018-04-23T23:05:02.688Z,6.90
2018-04-23T23:07:30.262Z,7.73
2018-04-23T23:09:57.912Z,7.93
2018-04-23T23:12:25.543Z,8.13
2018-04-23T23:14:53.987Z,8.30
2018-04-23T23:17:21.653Z,8.70
2018-04-23T23:19:52.806Z,8.27
2018-04-23T23:22:21.009Z,8.60
2018-04-23T23:24:49.092Z,9.13
2018-04-23T23:27:17.683Z,8.70
2018-04-23T23:29:47.624Z,9.03
2018-04-23T23:32:15.999Z,9.27
2018-04-23T23:34:44.600Z,9.70
2018-04-23T23:37:12.889Z,9.17
2018-04-23T23:39:41.210Z,10.00
2018-04-23T23:42:09.477Z,10.00
2018-04-23T23:44:40.323Z,8.50
2018-04-23T23:47:09.187Z,8.63
2018-04-23T23:49:37.373Z,9.03
2018-04-23T23:52:05.730Z,10.47
2018-04-23T23:54:34.503Z,10.23
2018-04-23T23:57:03.343Z,10.70
2018-04-23T23:59:31.502Z,12.53
